Latest Weather Observations for Wattamolla

IDN60801

Issued at 4:42 am EST Thursday 20 September 2018 (issued every 10 minutes, with the page automatically refreshed every 10 minutes)

About weather observations | Map of weather stations | Latest weather observations for NSW | Other Formats
Station Details ID: 066208 Name: WATTAMOLLA AWS Lat: -34.14 Lon: 151.12 Height: 44.0 m
Data from the previous 72 hours. | See also: Recent months for locations in New South Wales
Date/Time
EST
Temp
°C
App
Temp
°C
Dew
Point
°C
Rel
Hum
%
Delta-T
°C
Wind Press
QNH
hPa
Press
MSL
hPa
Rain since
9am
mm
Dir  Spd
km/h
Gust
km/h
Spd
kts
Gust
kts
20/04:30am - - - - - SSE 43 54 23 29 - - -
20/04:00am - - - - - SSE 43 52 23 28 - - -
20/03:30am - - - - - SSE 41 50 22 27 - - -
20/03:00am - - - - - S 35 43 19 23 - - -
20/02:30am - - - - - S 33 44 18 24 - - -
20/02:00am - - - - - S 35 41 19 22 - - -
20/01:30am - - - - - S 33 39 18 21 - - -
20/01:01am - - - - - SSE 32 50 17 27 - - -
20/01:00am - - - - - SSE 30 44 16 24 - - -
20/12:30am - - - - - SSE 32 43 17 23 - - -
20/12:00am - - - - - S 39 52 21 28 - - -
 
Date/Time
EST
Temp
°C
App
Temp
°C
Dew
Point
°C
Rel
Hum
%
Delta-T
°C
Wind Press
QNH
hPa
Press
MSL
hPa
Rain since
9am
mm
Dir  Spd
km/h
Gust
km/h
Spd
kts
Gust
kts
19/11:37pm - - - - - S 28 46 15 25 - - -
19/11:30pm - - - - - SSE 35 48 19 26 - - -
19/11:00pm - - - - - SSE 39 48 21 26 - - -
19/10:30pm - - - - - SSE 32 46 17 25 - - -
19/10:15pm - - - - - S 32 52 17 28 - - -
19/10:00pm - - - - - S 24 35 13 19 - - -
19/09:30pm - - - - - S 24 35 13 19 - - -
19/09:08pm - - - - - S 35 54 19 29 - - -
19/09:00pm - - - - - S 39 52 21 28 - - -
19/08:30pm - - - - - S 48 54 26 29 - - -
19/08:00pm - - - - - S 44 52 24 28 - - -
19/07:30pm - - - - - SSE 54 67 29 36 - - -
19/07:00pm - - - - - S 56 70 30 38 - - -
19/06:34pm - - - - - S 41 69 22 37 - - -
19/06:30pm - - - - - S 35 48 19 26 - - -
19/06:24pm - - - - - S 28 48 15 26 - - -
19/06:00pm - - - - - S 22 37 12 20 - - -
19/05:30pm - - - - - WSW 20 32 11 17 - - -
19/05:00pm - - - - - WSW 20 35 11 19 - - -
19/04:30pm - - - - - WNW 30 41 16 22 - - -
19/04:13pm - - - - - WNW 28 50 15 27 - - -
19/04:00pm - - - - - WNW 30 46 16 25 - - -
19/03:35pm - - - - - WNW 30 48 16 26 - - -
19/03:30pm - - - - - WNW 32 48 17 26 - - -
19/03:00pm - - - - - WNW 37 59 20 32 - - -
19/02:30pm - - - - - WNW 30 48 16 26 - - -
19/02:00pm - - - - - NW 39 59 21 32 - - -
19/01:44pm - - - - - WNW 30 52 16 28 - - -
19/01:43pm - - - - - WNW 30 44 16 24 - - -
19/01:30pm - - - - - W 37 65 20 35 - - -
19/01:00pm - - - - - W 32 57 17 31 - - -
19/12:57pm - - - - - W 26 48 14 26 - - -
19/12:30pm - - - - - N 19 28 10 15 - - -
19/12:00pm - - - - - N 19 32 10 17 - - -
19/11:30am - - - - - NE 15 26 8 14 - - -
19/11:00am - - - - - N 20 32 11 17 - - -
19/10:30am - - - - - N 26 37 14 20 - - -
19/10:00am - - - - - NNW 13 19 7 10 - - -
19/09:30am - - - - - NNW 13 20 7 11 - - -
19/09:00am - - - - - NW 19 28 10 15 - - -
19/08:30am - - - - - NW 19 28 10 15 - - -
19/08:00am - - - - - NW 19 28 10 15 - - -
19/07:30am - - - - - NW 17 26 9 14 - - -
19/07:00am - - - - - NW 17 26 9 14 - - -
19/06:30am - - - - - NW 17 26 9 14 - - -
19/06:00am - - - - - NNW 15 19 8 10 - - -
19/05:30am - - - - - N 17 19 9 10 - - -
19/05:00am - - - - - NNW 17 19 9 10 - - -
19/04:30am - - - - - NNW 17 17 9 9 - - -
19/04:00am - - - - - NNW 19 20 10 11 - - -
19/03:30am - - - - - NNW 17 20 9 11 - - -
19/03:00am - - - - - NNW 17 19 9 10 - - -
19/02:30am - - - - - NNW 17 17 9 9 - - -
19/02:00am - - - - - NNW 13 17 7 9 - - -
19/01:30am - - - - - NNW 17 19 9 10 - - -
19/01:00am - - - - - NNW 17 20 9 11 - - -
19/12:30am - - - - - N 20 26 11 14 - - -
19/12:00am - - - - - N 19 22 10 12 - - -
 
Date/Time
EST
Temp
°C
App
Temp
°C
Dew
Point
°C
Rel
Hum
%
Delta-T
°C
Wind Press
QNH
hPa
Press
MSL
hPa
Rain since
9am
mm
Dir  Spd
km/h
Gust
km/h
Spd
kts
Gust
kts
18/11:30pm - - - - - N 24 30 13 16 - - -
18/11:00pm - - - - - N 20 28 11 15 - - -
18/10:30pm - - - - - N 20 26 11 14 - - -
18/10:00pm - - - - - N 19 24 10 13 - - -
18/09:30pm - - - - - N 19 24 10 13 - - -
18/09:00pm - - - - - N 19 26 10 14 - - -
18/08:30pm - - - - - N 26 32 14 17 - - -
18/08:00pm - - - - - N 28 35 15 19 - - -
18/07:30pm - - - - - N 26 35 14 19 - - -
18/07:00pm - - - - - N 26 33 14 18 - - -
18/06:30pm - - - - - N 26 33 14 18 - - -
18/06:00pm - - - - - N 32 43 17 23 - - -
18/05:30pm - - - - - NNE 26 37 14 20 - - -
18/05:00pm - - - - - NNE 24 33 13 18 - - -
18/04:30pm - - - - - NNE 24 33 13 18 - - -
18/04:00pm - - - - - NE 28 41 15 22 - - -
18/03:30pm - - - - - NE 24 33 13 18 - - -
18/03:00pm - - - - - NNE 24 35 13 19 - - -
18/02:30pm - - - - - NNE 24 33 13 18 - - -
18/02:00pm - - - - - NE 24 33 13 18 - - -
18/01:30pm - - - - - NE 28 43 15 23 - - -
18/01:00pm - - - - - NE 24 39 13 21 - - -
18/12:30pm - - - - - NE 20 32 11 17 - - -
18/12:00pm - - - - - NE 20 32 11 17 - - -
18/11:30am - - - - - NE 22 33 12 18 - - -
18/11:00am - - - - - NE 22 32 12 17 - - -
18/10:30am - - - - - N 24 33 13 18 - - -
18/10:00am - - - - - NNW 20 26 11 14 - - -
18/09:30am - - - - - N 20 28 11 15 - - -
18/09:00am - - - - - N 17 26 9 14 - - -
18/08:30am - - - - - N 15 22 8 12 - - -
18/08:00am - - - - - NNW 17 24 9 13 - - -
18/07:30am - - - - - NNW 15 19 8 10 - - -
18/07:00am - - - - - N 13 15 7 8 - - -
18/06:30am - - - - - NNW 15 19 8 10 - - -
18/06:00am - - - - - NNW 17 19 9 10 - - -
18/05:30am - - - - - NNW 15 17 8 9 - - -
18/05:00am - - - - - NNW 13 17 7 9 - - -
18/04:30am - - - - - NNW 15 19 8 10 - - -
18/04:00am - - - - - NNW 17 19 9 10 - - -
18/03:30am - - - - - NNW 13 17 7 9 - - -
18/03:00am - - - - - NNW 13 17 7 9 - - -
18/02:30am - - - - - NNW 11 15 6 8 - - -
18/02:00am - - - - - NNW 9 13 5 7 - - -
18/01:30am - - - - - NNW 11 15 6 8 - - -
18/01:00am - - - - - NNW 13 15 7 8 - - -
18/12:30am - - - - - NNW 13 17 7 9 - - -
18/12:00am - - - - - NNW 13 17 7 9 - - -
 
Date/Time
EST
Temp
°C
App
Temp
°C
Dew
Point
°C
Rel
Hum
%
Delta-T
°C
Wind Press
QNH
hPa
Press
MSL
hPa
Rain since
9am
mm
Dir  Spd
km/h
Gust
km/h
Spd
kts
Gust
kts
17/11:30pm - - - - - NNW 13 17 7 9 - - -
17/11:00pm - - - - - NNW 15 17 8 9 - - -
17/10:30pm - - - - - NNW 15 17 8 9 - - -
17/10:00pm - - - - - NNW 13 15 7 8 - - -
17/09:30pm - - - - - N 19 26 10 14 - - -
17/09:00pm - - - - - N 19 22 10 12 - - -
17/08:30pm - - - - - N 17 26 9 14 - - -
17/08:00pm - - - - - N 20 26 11 14 - - -
17/07:30pm - - - - - N 20 28 11 15 - - -
17/07:00pm - - - - - N 20 26 11 14 - - -
17/06:30pm - - - - - NNE 22 28 12 15 - - -
17/06:00pm - - - - - NNE 22 32 12 17 - - -
17/05:30pm - - - - - NNE 22 37 12 20 - - -
17/05:00pm - - - - - NNE 26 37 14 20 - - -
17/04:30pm - - - - - NE 24 37 13 20 - - -
17/04:00pm - - - - - NNE 22 32 12 17 - - -
17/03:30pm - - - - - NE 24 33 13 18 - - -
17/03:00pm - - - - - NE 20 32 11 17 - - -
17/02:30pm - - - - - NE 22 32 12 17 - - -
17/02:00pm - - - - - NE 24 35 13 19 - - -
17/01:30pm - - - - - ENE 22 32 12 17 - - -
17/01:00pm - - - - - ENE 20 28 11 15 - - -
17/12:30pm - - - - - E 15 26 8 14 - - -
17/12:00pm - - - - - E 13 19 7 10 - - -
17/11:30am - - - - - ESE 13 20 7 11 - - -
17/11:00am - - - - - SE 13 15 7 8 - - -
17/10:30am - - - - - SSE 13 17 7 9 - - -
17/10:00am - - - - - SSE 13 15 7 8 - - -
17/09:30am - - - - - SSE 13 19 7 10 - - -
17/09:00am - - - - - S 13 15 7 8 - - -
17/08:30am - - - - - S 13 15 7 8 - - -
17/08:00am - - - - - S 13 17 7 9 - - -
17/07:30am - - - - - SW 9 11 5 6 - - -
17/07:00am - - - - - WSW 9 11 5 6 - - -
17/06:30am - - - - - WSW 11 13 6 7 - - -
17/06:00am - - - - - SW 13 15 7 8 - - -
17/05:30am - - - - - SW 13 15 7 8 - - -
17/05:00am - - - - - SW 11 15 6 8 - - -

Other Formats:

Comma delimited format used in spreadsheet applications
http://www.bom.gov.au/fwo/IDN60801/IDN60801.95752.axf

JavaScript Object Notation format (JSON) in row-major order
http://www.bom.gov.au/fwo/IDN60801/IDN60801.95752.json